Terminal Aerodrome Forecast
Issued by NWS Cleveland, OH

Home | Current Version | Previous Version | Graphics & Text | Print | Product List | Glossary On
Versions: 1 2 3 4 5 6 7 8 9 10 11 12 13 14 15 16 17 18 19
671
FTUS41 KCLE 181130
TAFMFD
TAF
KMFD 181130Z 1812/1912 18003KT P6SM BKN250
     FM181600 21004KT P6SM OVC150
     FM182100 03005KT P6SM BKN070=

USA.gov is the U.S. government's official web portal to all federal, state and local government web resources and services.